sensor_id;sensor_type;location;lat;lon;timestamp;pressure;altitude;pressure_sealevel;temperature;humidity
1480;BME280;732;51.698;4.886;2023-02-20T00:01:48;102758.88;;;3.60;100.00
1480;BME280;732;51.698;4.886;2023-02-20T00:04:17;102750.31;;;3.48;100.00
1480;BME280;732;51.698;4.886;2023-02-20T00:06:46;102751.81;;;3.45;100.00
1480;BME280;732;51.698;4.886;2023-02-20T00:09:15;102752.63;;;3.44;100.00
1480;BME280;732;51.698;4.886;2023-02-20T00:11:44;102715.38;;;3.30;100.00
1480;BME280;732;51.698;4.886;2023-02-20T00:14:13;102744.78;;;3.57;100.00
1480;BME280;732;51.698;4.886;2023-02-20T00:16:45;102684.56;;;3.09;100.00
1480;BME280;732;51.698;4.886;2023-02-20T00:19:14;102749.69;;;3.52;100.00
1480;BME280;732;51.698;4.886;2023-02-20T00:21:46;102715.06;;;3.53;100.00
1480;BME280;732;51.698;4.886;2023-02-20T00:24:16;102717.13;;;3.59;100.00
1480;BME280;732;51.698;4.886;2023-02-20T00:26:46;102709.16;;;3.56;100.00
1480;BME280;732;51.698;4.886;2023-02-20T00:29:16;102678.09;;;3.44;100.00
1480;BME280;732;51.698;4.886;2023-02-20T00:31:51;102694.94;;;3.36;100.00
1480;BME280;732;51.698;4.886;2023-02-20T00:34:22;102692.72;;;3.42;100.00
1480;BME280;732;51.698;4.886;2023-02-20T00:36:51;102697.66;;;3.52;100.00
1480;BME280;732;51.698;4.886;2023-02-20T00:39:20;102711.28;;;3.48;100.00
1480;BME280;732;51.698;4.886;2023-02-20T00:41:48;102703.94;;;3.41;100.00
1480;BME280;732;51.698;4.886;2023-02-20T00:44:18;102675.72;;;3.20;100.00
1480;BME280;732;51.698;4.886;2023-02-20T00:46:46;102687.66;;;3.31;100.00
1480;BME280;732;51.698;4.886;2023-02-20T00:49:16;102682.19;;;3.26;100.00
1480;BME280;732;51.698;4.886;2023-02-20T00:51:46;102650.59;;;3.06;100.00
1480;BME280;732;51.698;4.886;2023-02-20T00:54:15;102676.19;;;3.27;100.00
1480;BME280;732;51.698;4.886;2023-02-20T00:56:44;102681.44;;;3.14;100.00
1480;BME280;732;51.698;4.886;2023-02-20T00:59:13;102650.22;;;3.00;100.00
1480;BME280;732;51.698;4.886;2023-02-20T01:01:42;102681.88;;;3.07;100.00
1480;BME280;732;51.698;4.886;2023-02-20T01:04:10;102674.50;;;3.00;100.00
1480;BME280;732;51.698;4.886;2023-02-20T01:06:42;102700.88;;;3.06;100.00
1480;BME280;732;51.698;4.886;2023-02-20T01:09:11;102677.72;;;2.96;100.00
1480;BME280;732;51.698;4.886;2023-02-20T01:11:41;102699.38;;;3.10;100.00
1480;BME280;732;51.698;4.886;2023-02-20T01:14:10;102695.44;;;3.16;100.00
1480;BME280;732;51.698;4.886;2023-02-20T01:16:43;102685.38;;;3.08;100.00
1480;BME280;732;51.698;4.886;2023-02-20T01:19:13;102703.78;;;3.25;100.00
1480;BME280;732;51.698;4.886;2023-02-20T01:21:43;102688.38;;;3.14;100.00
1480;BME280;732;51.698;4.886;2023-02-20T01:24:12;102689.31;;;3.16;100.00
1480;BME280;732;51.698;4.886;2023-02-20T01:26:43;102683.72;;;3.23;100.00
1480;BME280;732;51.698;4.886;2023-02-20T01:29:13;102679.56;;;3.12;100.00
1480;BME280;732;51.698;4.886;2023-02-20T01:31:47;102657.16;;;3.14;100.00
1480;BME280;732;51.698;4.886;2023-02-20T01:34:17;102667.59;;;3.28;100.00
1480;BME280;732;51.698;4.886;2023-02-20T01:36:49;102647.22;;;3.21;100.00
1480;BME280;732;51.698;4.886;2023-02-20T01:39:19;102653.66;;;3.13;100.00
1480;BME280;732;51.698;4.886;2023-02-20T01:41:53;102669.47;;;3.31;100.00
1480;BME280;732;51.698;4.886;2023-02-20T01:44:24;102650.38;;;3.30;100.00
1480;BME280;732;51.698;4.886;2023-02-20T01:46:54;102655.59;;;3.45;100.00
1480;BME280;732;51.698;4.886;2023-02-20T01:49:31;102630.38;;;3.44;100.00
1480;BME280;732;51.698;4.886;2023-02-20T01:52:16;102621.03;;;3.33;100.00
1480;BME280;732;51.698;4.886;2023-02-20T01:54:52;102616.91;;;3.36;100.00
1480;BME280;732;51.698;4.886;2023-02-20T01:57:26;102626.25;;;3.33;100.00
1480;BME280;732;51.698;4.886;2023-02-20T02:00:00;102601.84;;;3.16;100.00
1480;BME280;732;51.698;4.886;2023-02-20T02:02:45;102620.41;;;3.37;100.00
1480;BME280;732;51.698;4.886;2023-02-20T02:05:16;102607.94;;;3.31;100.00
1480;BME280;732;51.698;4.886;2023-02-20T02:07:47;102633.25;;;3.48;100.00
1480;BME280;732;51.698;4.886;2023-02-20T02:10:19;102608.50;;;3.40;100.00
1480;BME280;732;51.698;4.886;2023-02-20T02:12:52;102606.00;;;3.56;100.00
1480;BME280;732;51.698;4.886;2023-02-20T02:15:23;102604.03;;;3.52;100.00
1480;BME280;732;51.698;4.886;2023-02-20T02:21:24;102608.84;;;3.32;100.00
1480;BME280;732;51.698;4.886;2023-02-20T02:27:53;102600.06;;;3.44;100.00
1480;BME280;732;51.698;4.886;2023-02-20T02:31:32;102601.25;;;3.49;100.00
1480;BME280;732;51.698;4.886;2023-02-20T02:37:33;102578.72;;;3.35;100.00
1480;BME280;732;51.698;4.886;2023-02-20T02:40:15;102571.91;;;3.37;100.00
1480;BME280;732;51.698;4.886;2023-02-20T02:42:51;102572.44;;;3.32;100.00
1480;BME280;732;51.698;4.886;2023-02-20T02:45:31;102579.44;;;3.33;100.00
1480;BME280;732;51.698;4.886;2023-02-20T02:48:10;102571.53;;;3.31;100.00
1480;BME280;732;51.698;4.886;2023-02-20T02:50:42;102568.50;;;3.38;100.00
1480;BME280;732;51.698;4.886;2023-02-20T02:53:14;102564.56;;;3.30;100.00
1480;BME280;732;51.698;4.886;2023-02-20T02:55:43;102570.47;;;3.42;100.00
1480;BME280;732;51.698;4.886;2023-02-20T02:58:12;102565.09;;;3.39;100.00
1480;BME280;732;51.698;4.886;2023-02-20T03:00:45;102549.84;;;3.16;100.00
1480;BME280;732;51.698;4.886;2023-02-20T03:03:21;102564.50;;;3.29;100.00
1480;BME280;732;51.698;4.886;2023-02-20T03:05:55;102537.38;;;3.25;100.00
1480;BME280;732;51.698;4.886;2023-02-20T03:08:32;102568.69;;;3.41;100.00
1480;BME280;732;51.698;4.886;2023-02-20T03:11:06;102560.44;;;3.48;100.00
1480;BME280;732;51.698;4.886;2023-02-20T03:13:43;102552.91;;;3.53;100.00
1480;BME280;732;51.698;4.886;2023-02-20T03:16:36;102525.00;;;3.50;100.00
1480;BME280;732;51.698;4.886;2023-02-20T03:19:12;102550.34;;;3.69;100.00
1480;BME280;732;51.698;4.886;2023-02-20T03:21:45;102531.06;;;3.65;100.00
1480;BME280;732;51.698;4.886;2023-02-20T03:24:19;102542.69;;;3.87;100.00
1480;BME280;732;51.698;4.886;2023-02-20T03:26:50;102550.63;;;3.73;100.00
1480;BME280;732;51.698;4.886;2023-02-20T03:29:25;102556.84;;;3.92;100.00
1480;BME280;732;51.698;4.886;2023-02-20T03:31:59;102549.00;;;4.06;100.00
1480;BME280;732;51.698;4.886;2023-02-20T03:34:49;102541.09;;;4.05;100.00
1480;BME280;732;51.698;4.886;2023-02-20T03:37:39;102514.50;;;3.94;100.00
1480;BME280;732;51.698;4.886;2023-02-20T03:40:30;102543.16;;;4.10;100.00
1480;BME280;732;51.698;4.886;2023-02-20T03:43:19;102544.97;;;4.11;100.00
1480;BME280;732;51.698;4.886;2023-02-20T03:45:58;102551.72;;;4.24;100.00
1480;BME280;732;51.698;4.886;2023-02-20T03:48:35;102559.84;;;4.28;100.00
1480;BME280;732;51.698;4.886;2023-02-20T03:51:10;102562.25;;;4.25;100.00
1480;BME280;732;51.698;4.886;2023-02-20T03:53:47;102543.66;;;4.34;100.00
1480;BME280;732;51.698;4.886;2023-02-20T03:56:19;102562.78;;;4.50;100.00
1480;BME280;732;51.698;4.886;2023-02-20T03:58:53;102558.72;;;4.55;100.00
1480;BME280;732;51.698;4.886;2023-02-20T04:01:26;102567.94;;;4.49;100.00
1480;BME280;732;51.698;4.886;2023-02-20T04:03:58;102565.31;;;4.49;100.00
1480;BME280;732;51.698;4.886;2023-02-20T04:06:30;102547.94;;;4.49;100.00
1480;BME280;732;51.698;4.886;2023-02-20T04:09:05;102554.72;;;4.46;100.00
1480;BME280;732;51.698;4.886;2023-02-20T04:11:44;102552.38;;;4.50;100.00
1480;BME280;732;51.698;4.886;2023-02-20T04:14:18;102555.59;;;4.62;100.00
1480;BME280;732;51.698;4.886;2023-02-20T04:16:54;102550.91;;;4.55;100.00
1480;BME280;732;51.698;4.886;2023-02-20T04:19:25;102541.19;;;4.53;100.00
1480;BME280;732;51.698;4.886;2023-02-20T04:21:58;102535.91;;;4.51;100.00
1480;BME280;732;51.698;4.886;2023-02-20T04:24:33;102538.44;;;4.50;100.00
1480;BME280;732;51.698;4.886;2023-02-20T04:27:05;102552.03;;;4.60;100.00
1480;BME280;732;51.698;4.886;2023-02-20T04:29:42;102550.09;;;4.56;100.00
1480;BME280;732;51.698;4.886;2023-02-20T04:32:10;102552.94;;;4.61;100.00
1480;BME280;732;51.698;4.886;2023-02-20T04:34:39;102538.50;;;4.51;100.00
1480;BME280;732;51.698;4.886;2023-02-20T04:37:12;102534.28;;;4.53;100.00
1480;BME280;732;51.698;4.886;2023-02-20T04:39:42;102540.72;;;4.60;100.00
1480;BME280;732;51.698;4.886;2023-02-20T04:42:13;102550.22;;;4.76;100.00
1480;BME280;732;51.698;4.886;2023-02-20T04:44:42;102533.78;;;4.77;100.00
1480;BME280;732;51.698;4.886;2023-02-20T04:47:15;102531.84;;;4.73;100.00
1480;BME280;732;51.698;4.886;2023-02-20T04:49:44;102554.47;;;4.74;100.00
1480;BME280;732;51.698;4.886;2023-02-20T04:52:18;102542.81;;;4.83;100.00
1480;BME280;732;51.698;4.886;2023-02-20T04:54:47;102551.84;;;4.74;100.00
1480;BME280;732;51.698;4.886;2023-02-20T04:57:17;102541.34;;;4.72;100.00
1480;BME280;732;51.698;4.886;2023-02-20T04:59:46;102523.84;;;4.86;100.00
1480;BME280;732;51.698;4.886;2023-02-20T05:02:15;102526.88;;;4.77;100.00
1480;BME280;732;51.698;4.886;2023-02-20T05:04:44;102528.97;;;4.84;100.00
1480;BME280;732;51.698;4.886;2023-02-20T05:07:12;102534.66;;;4.93;100.00
1480;BME280;732;51.698;4.886;2023-02-20T05:09:43;102542.22;;;5.05;100.00
1480;BME280;732;51.698;4.886;2023-02-20T05:12:12;102513.09;;;4.80;100.00
1480;BME280;732;51.698;4.886;2023-02-20T05:14:42;102546.66;;;4.90;100.00
1480;BME280;732;51.698;4.886;2023-02-20T05:17:11;102554.22;;;5.01;100.00
1480;BME280;732;51.698;4.886;2023-02-20T05:19:40;102551.59;;;5.01;100.00
1480;BME280;732;51.698;4.886;2023-02-20T05:22:10;102517.63;;;5.00;100.00
1480;BME280;732;51.698;4.886;2023-02-20T05:24:49;102533.69;;;5.07;100.00
1480;BME280;732;51.698;4.886;2023-02-20T05:27:20;102531.22;;;4.94;100.00
1480;BME280;732;51.698;4.886;2023-02-20T05:29:54;102532.56;;;4.86;100.00
1480;BME280;732;51.698;4.886;2023-02-20T05:32:24;102512.22;;;4.79;100.00
1480;BME280;732;51.698;4.886;2023-02-20T05:34:54;102515.13;;;4.85;100.00
1480;BME280;732;51.698;4.886;2023-02-20T05:37:25;102520.31;;;4.85;100.00
1480;BME280;732;51.698;4.886;2023-02-20T05:39:54;102537.34;;;5.11;100.00
1480;BME280;732;51.698;4.886;2023-02-20T05:42:22;102552.13;;;5.28;100.00
1480;BME280;732;51.698;4.886;2023-02-20T05:44:52;102542.09;;;5.19;100.00
1480;BME280;732;51.698;4.886;2023-02-20T05:47:21;102544.50;;;5.15;100.00
1480;BME280;732;51.698;4.886;2023-02-20T05:49:49;102539.28;;;4.99;100.00
1480;BME280;732;51.698;4.886;2023-02-20T05:52:17;102521.47;;;4.90;100.00
1480;BME280;732;51.698;4.886;2023-02-20T05:54:46;102541.25;;;5.03;100.00
1480;BME280;732;51.698;4.886;2023-02-20T05:57:15;102533.84;;;4.94;100.00
1480;BME280;732;51.698;4.886;2023-02-20T05:59:43;102544.09;;;5.07;100.00
1480;BME280;732;51.698;4.886;2023-02-20T06:02:13;102533.84;;;4.94;100.00
1480;BME280;732;51.698;4.886;2023-02-20T06:04:41;102558.19;;;5.11;100.00
1480;BME280;732;51.698;4.886;2023-02-20T06:07:10;102554.63;;;5.09;100.00
1480;BME280;732;51.698;4.886;2023-02-20T06:09:41;102532.78;;;5.07;100.00
1480;BME280;732;51.698;4.886;2023-02-20T06:12:11;102547.56;;;5.24;100.00
1480;BME280;732;51.698;4.886;2023-02-20T06:14:40;102553.75;;;5.26;100.00
1480;BME280;732;51.698;4.886;2023-02-20T06:17:09;102548.63;;;5.27;100.00
1480;BME280;732;51.698;4.886;2023-02-20T06:19:39;102556.97;;;5.38;100.00
1480;BME280;732;51.698;4.886;2023-02-20T06:22:08;102549.81;;;5.34;100.00
1480;BME280;732;51.698;4.886;2023-02-20T06:24:37;102548.53;;;5.26;100.00
1480;BME280;732;51.698;4.886;2023-02-20T06:27:05;102549.94;;;5.19;100.00
1480;BME280;732;51.698;4.886;2023-02-20T06:29:34;102536.44;;;5.10;100.00
1480;BME280;732;51.698;4.886;2023-02-20T06:32:04;102542.25;;;5.22;100.00
1480;BME280;732;51.698;4.886;2023-02-20T06:34:33;102549.28;;;5.23;100.00
1480;BME280;732;51.698;4.886;2023-02-20T06:37:03;102548.38;;;5.23;100.00
1480;BME280;732;51.698;4.886;2023-02-20T06:39:32;102540.94;;;5.30;100.00
1480;BME280;732;51.698;4.886;2023-02-20T06:42:01;102526.81;;;5.43;100.00
1480;BME280;732;51.698;4.886;2023-02-20T06:44:29;102536.63;;;5.31;100.00
1480;BME280;732;51.698;4.886;2023-02-20T06:46:59;102539.94;;;5.28;100.00
1480;BME280;732;51.698;4.886;2023-02-20T06:49:28;102529.91;;;5.18;100.00
1480;BME280;732;51.698;4.886;2023-02-20T06:51:56;102514.38;;;5.21;100.00
1480;BME280;732;51.698;4.886;2023-02-20T06:54:26;102541.31;;;5.38;100.00
1480;BME280;732;51.698;4.886;2023-02-20T06:56:55;102525.72;;;5.22;100.00
1480;BME280;732;51.698;4.886;2023-02-20T06:59:24;102540.03;;;5.30;100.00
1480;BME280;732;51.698;4.886;2023-02-20T07:01:53;102535.13;;;5.18;100.00
1480;BME280;732;51.698;4.886;2023-02-20T07:04:24;102525.91;;;5.09;100.00
1480;BME280;732;51.698;4.886;2023-02-20T07:06:54;102544.31;;;5.28;100.00
1480;BME280;732;51.698;4.886;2023-02-20T07:09:22;102555.91;;;5.34;100.00
1480;BME280;732;51.698;4.886;2023-02-20T07:11:53;102530.38;;;5.11;100.00
1480;BME280;732;51.698;4.886;2023-02-20T07:14:22;102548.22;;;5.20;100.00
1480;BME280;732;51.698;4.886;2023-02-20T07:16:50;102467.59;;;4.73;100.00
1480;BME280;732;51.698;4.886;2023-02-20T07:19:19;102547.63;;;5.25;100.00
1480;BME280;732;51.698;4.886;2023-02-20T07:21:48;102547.84;;;5.30;100.00
1480;BME280;732;51.698;4.886;2023-02-20T07:24:16;102524.16;;;5.25;100.00
1480;BME280;732;51.698;4.886;2023-02-20T07:26:46;102544.81;;;5.38;100.00
1480;BME280;732;51.698;4.886;2023-02-20T07:29:16;102527.38;;;5.37;100.00
1480;BME280;732;51.698;4.886;2023-02-20T07:31:44;102552.59;;;5.54;100.00
1480;BME280;732;51.698;4.886;2023-02-20T07:34:13;102549.91;;;5.53;100.00
1480;BME280;732;51.698;4.886;2023-02-20T07:36:42;102551.41;;;5.48;100.00
1480;BME280;732;51.698;4.886;2023-02-20T07:39:12;102550.94;;;5.56;100.00
1480;BME280;732;51.698;4.886;2023-02-20T07:41:41;102531.72;;;5.37;100.00
1480;BME280;732;51.698;4.886;2023-02-20T07:44:31;102560.41;;;5.37;100.00
1480;BME280;732;51.698;4.886;2023-02-20T07:46:59;102542.56;;;5.28;100.00
1480;BME280;732;51.698;4.886;2023-02-20T07:49:27;102539.03;;;5.44;100.00
1480;BME280;732;51.698;4.886;2023-02-20T07:51:56;102553.56;;;5.56;100.00
1480;BME280;732;51.698;4.886;2023-02-20T07:54:24;102548.50;;;5.77;100.00
1480;BME280;732;51.698;4.886;2023-02-20T07:56:54;102542.44;;;5.60;100.00
1480;BME280;732;51.698;4.886;2023-02-20T07:59:23;102538.13;;;5.61;100.00
1480;BME280;732;51.698;4.886;2023-02-20T08:01:53;102533.28;;;5.51;100.00
1480;BME280;732;51.698;4.886;2023-02-20T08:04:22;102541.34;;;5.55;100.00
1480;BME280;732;51.698;4.886;2023-02-20T08:06:50;102517.41;;;5.46;100.00
1480;BME280;732;51.698;4.886;2023-02-20T08:09:19;102535.69;;;5.46;100.00
1480;BME280;732;51.698;4.886;2023-02-20T08:11:47;102556.16;;;5.56;100.00
1480;BME280;732;51.698;4.886;2023-02-20T08:14:16;102553.13;;;5.65;100.00
1480;BME280;732;51.698;4.886;2023-02-20T08:16:44;102552.59;;;5.72;100.00
1480;BME280;732;51.698;4.886;2023-02-20T08:19:14;102550.34;;;5.62;100.00
1480;BME280;732;51.698;4.886;2023-02-20T08:21:43;102564.66;;;5.52;100.00
1480;BME280;732;51.698;4.886;2023-02-20T08:24:12;102561.47;;;5.58;100.00
1480;BME280;732;51.698;4.886;2023-02-20T08:26:44;102563.34;;;5.60;100.00
1480;BME280;732;51.698;4.886;2023-02-20T08:29:14;102536.50;;;5.63;100.00
1480;BME280;732;51.698;4.886;2023-02-20T08:31:43;102555.13;;;5.88;100.00
1480;BME280;732;51.698;4.886;2023-02-20T08:34:14;102531.72;;;5.90;100.00
1480;BME280;732;51.698;4.886;2023-02-20T08:36:42;102539.22;;;6.01;100.00
1480;BME280;732;51.698;4.886;2023-02-20T08:39:11;102528.56;;;5.97;100.00
1480;BME280;732;51.698;4.886;2023-02-20T08:41:43;102551.88;;;6.10;100.00
1480;BME280;732;51.698;4.886;2023-02-20T08:44:12;102544.09;;;6.11;100.00
1480;BME280;732;51.698;4.886;2023-02-20T08:46:46;102533.41;;;6.07;100.00
1480;BME280;732;51.698;4.886;2023-02-20T08:49:19;102518.47;;;6.04;100.00
1480;BME280;732;51.698;4.886;2023-02-20T08:51:55;102515.03;;;6.23;100.00
1480;BME280;732;51.698;4.886;2023-02-20T08:54:24;102549.97;;;6.07;100.00
1480;BME280;732;51.698;4.886;2023-02-20T08:56:53;102540.44;;;6.25;100.00
1480;BME280;732;51.698;4.886;2023-02-20T08:59:21;102531.34;;;6.17;100.00
1480;BME280;732;51.698;4.886;2023-02-20T09:01:50;102509.56;;;5.82;100.00
1480;BME280;732;51.698;4.886;2023-02-20T09:04:20;102520.25;;;5.86;100.00
1480;BME280;732;51.698;4.886;2023-02-20T09:06:50;102542.66;;;6.00;100.00
1480;BME280;732;51.698;4.886;2023-02-20T09:09:18;102554.78;;;6.16;100.00
1480;BME280;732;51.698;4.886;2023-02-20T09:11:47;102545.06;;;6.13;100.00
1480;BME280;732;51.698;4.886;2023-02-20T09:14:16;102544.19;;;6.32;100.00
1480;BME280;732;51.698;4.886;2023-02-20T09:16:44;102556.94;;;6.43;100.00
1480;BME280;732;51.698;4.886;2023-02-20T09:19:13;102535.47;;;6.12;100.00
1480;BME280;732;51.698;4.886;2023-02-20T09:21:47;102524.25;;;5.97;100.00
1480;BME280;732;51.698;4.886;2023-02-20T09:24:16;102552.59;;;6.25;100.00
1480;BME280;732;51.698;4.886;2023-02-20T09:26:45;102546.78;;;6.49;100.00
1480;BME280;732;51.698;4.886;2023-02-20T09:29:14;102527.28;;;6.24;100.00
1480;BME280;732;51.698;4.886;2023-02-20T09:31:42;102528.50;;;6.13;100.00
1480;BME280;732;51.698;4.886;2023-02-20T09:34:11;102516.63;;;6.19;100.00
1480;BME280;732;51.698;4.886;2023-02-20T09:36:40;102507.88;;;6.19;100.00
1480;BME280;732;51.698;4.886;2023-02-20T09:39:10;102522.53;;;6.15;100.00
1480;BME280;732;51.698;4.886;2023-02-20T09:41:55;102525.72;;;6.27;100.00
1480;BME280;732;51.698;4.886;2023-02-20T09:44:36;102523.84;;;6.25;100.00
1480;BME280;732;51.698;4.886;2023-02-20T09:47:23;102514.50;;;6.30;100.00
1480;BME280;732;51.698;4.886;2023-02-20T09:49:58;102536.44;;;6.33;100.00
1480;BME280;732;51.698;4.886;2023-02-20T09:52:30;102533.81;;;6.33;100.00
1480;BME280;732;51.698;4.886;2023-02-20T09:55:07;102535.00;;;6.40;100.00
1480;BME280;732;51.698;4.886;2023-02-20T09:57:41;102515.72;;;6.01;100.00
1480;BME280;732;51.698;4.886;2023-02-20T10:00:19;102543.16;;;6.28;100.00
1480;BME280;732;51.698;4.886;2023-02-20T10:02:56;102526.09;;;6.17;100.00
1480;BME280;732;51.698;4.886;2023-02-20T10:05:28;102552.66;;;6.26;100.00
1480;BME280;732;51.698;4.886;2023-02-20T10:07:58;102546.34;;;6.21;100.00
1480;BME280;732;51.698;4.886;2023-02-20T10:10:31;102545.19;;;6.16;100.00
1480;BME280;732;51.698;4.886;2023-02-20T10:13:20;102566.69;;;6.28;100.00
1480;BME280;732;51.698;4.886;2023-02-20T10:16:02;102578.22;;;6.14;100.00
1480;BME280;732;51.698;4.886;2023-02-20T10:18:43;102554.31;;;6.24;100.00
1480;BME280;732;51.698;4.886;2023-02-20T10:21:22;102559.81;;;6.30;100.00
1480;BME280;732;51.698;4.886;2023-02-20T10:24:01;102577.88;;;6.26;100.00
1480;BME280;732;51.698;4.886;2023-02-20T10:26:45;102552.84;;;6.12;100.00
1480;BME280;732;51.698;4.886;2023-02-20T10:29:18;102580.50;;;6.08;100.00
1480;BME280;732;51.698;4.886;2023-02-20T10:31:52;102579.31;;;6.19;100.00
1480;BME280;732;51.698;4.886;2023-02-20T10:34:28;102558.91;;;6.30;100.00
1480;BME280;732;51.698;4.886;2023-02-20T10:37:05;102565.41;;;6.38;100.00
1480;BME280;732;51.698;4.886;2023-02-20T10:39:35;102568.06;;;6.39;100.00
1480;BME280;732;51.698;4.886;2023-02-20T10:42:12;102570.34;;;6.32;100.00
1480;BME280;732;51.698;4.886;2023-02-20T10:44:47;102553.75;;;6.31;100.00
1480;BME280;732;51.698;4.886;2023-02-20T10:47:23;102551.63;;;6.23;100.00
1480;BME280;732;51.698;4.886;2023-02-20T10:49:59;102561.16;;;6.22;100.00
1480;BME280;732;51.698;4.886;2023-02-20T10:52:34;102548.16;;;6.24;100.00
1480;BME280;732;51.698;4.886;2023-02-20T10:55:09;102571.31;;;6.34;100.00
1480;BME280;732;51.698;4.886;2023-02-20T10:57:47;102555.56;;;6.32;100.00
1480;BME280;732;51.698;4.886;2023-02-20T11:00:22;102555.91;;;6.40;100.00
1480;BME280;732;51.698;4.886;2023-02-20T11:02:58;102534.16;;;6.41;100.00
1480;BME280;732;51.698;4.886;2023-02-20T11:05:37;102562.81;;;6.57;100.00
1480;BME280;732;51.698;4.886;2023-02-20T11:08:08;102554.41;;;6.45;100.00
1480;BME280;732;51.698;4.886;2023-02-20T11:10:36;102509.06;;;6.44;100.00
1480;BME280;732;51.698;4.886;2023-02-20T11:13:15;102506.78;;;6.71;100.00
1480;BME280;732;51.698;4.886;2023-02-20T11:15:45;102522.41;;;6.70;100.00
1480;BME280;732;51.698;4.886;2023-02-20T11:18:21;102542.72;;;6.75;100.00
1480;BME280;732;51.698;4.886;2023-02-20T11:20:54;102551.06;;;6.86;100.00
1480;BME280;732;51.698;4.886;2023-02-20T11:23:38;102530.81;;;6.82;100.00
1480;BME280;732;51.698;4.886;2023-02-20T11:26:27;102530.38;;;6.92;100.00
1480;BME280;732;51.698;4.886;2023-02-20T11:29:05;102520.00;;;6.93;100.00
1480;BME280;732;51.698;4.886;2023-02-20T11:31:38;102500.22;;;7.00;100.00
1480;BME280;732;51.698;4.886;2023-02-20T11:34:16;102510.38;;;7.13;100.00
1480;BME280;732;51.698;4.886;2023-02-20T11:36:48;102478.97;;;7.13;100.00
1480;BME280;732;51.698;4.886;2023-02-20T11:39:24;102502.50;;;7.54;100.00
1480;BME280;732;51.698;4.886;2023-02-20T11:42:14;102489.69;;;7.39;100.00
1480;BME280;732;51.698;4.886;2023-02-20T11:44:44;102484.97;;;7.31;100.00
1480;BME280;732;51.698;4.886;2023-02-20T11:47:24;102473.31;;;7.23;100.00
1480;BME280;732;51.698;4.886;2023-02-20T11:50:14;102491.94;;;7.10;100.00
1480;BME280;732;51.698;4.886;2023-02-20T11:52:59;102489.28;;;7.29;100.00
1480;BME280;732;51.698;4.886;2023-02-20T11:55:31;102501.94;;;7.40;100.00
1480;BME280;732;51.698;4.886;2023-02-20T11:58:01;102488.47;;;7.31;100.00
1480;BME280;732;51.698;4.886;2023-02-20T12:00:44;102460.03;;;7.18;100.00
1480;BME280;732;51.698;4.886;2023-02-20T12:03:21;102460.22;;;7.23;100.00
1480;BME280;732;51.698;4.886;2023-02-20T12:05:51;102457.56;;;7.21;100.00
1480;BME280;732;51.698;4.886;2023-02-20T12:08:35;102448.34;;;7.10;100.00
1480;BME280;732;51.698;4.886;2023-02-20T12:11:13;102454.16;;;7.24;100.00
1480;BME280;732;51.698;4.886;2023-02-20T12:13:45;102446.75;;;7.14;100.00
1480;BME280;732;51.698;4.886;2023-02-20T12:16:38;102420.63;;;7.36;100.00
1480;BME280;732;51.698;4.886;2023-02-20T12:19:14;102425.16;;;7.40;100.00
1480;BME280;732;51.698;4.886;2023-02-20T12:22:00;102422.88;;;7.27;100.00
1480;BME280;732;51.698;4.886;2023-02-20T12:24:46;102411.16;;;7.17;100.00
1480;BME280;732;51.698;4.886;2023-02-20T12:27:43;102439.06;;;7.39;100.00
1480;BME280;732;51.698;4.886;2023-02-20T12:30:28;102449.78;;;7.45;100.00
1480;BME280;732;51.698;4.886;2023-02-20T12:33:23;102417.41;;;7.21;100.00
1480;BME280;732;51.698;4.886;2023-02-20T12:36:00;102420.91;;;7.21;100.00
1480;BME280;732;51.698;4.886;2023-02-20T12:38:42;102418.91;;;7.16;100.00
1480;BME280;732;51.698;4.886;2023-02-20T12:44:42;102383.81;;;7.11;100.00
1480;BME280;732;51.698;4.886;2023-02-20T12:47:25;102408.38;;;7.14;100.00
1480;BME280;732;51.698;4.886;2023-02-20T12:50:39;102371.78;;;6.94;100.00
1480;BME280;732;51.698;4.886;2023-02-20T12:53:36;102444.00;;;7.11;100.00
1480;BME280;732;51.698;4.886;2023-02-20T12:56:28;102427.34;;;7.09;100.00
1480;BME280;732;51.698;4.886;2023-02-20T12:59:08;102428.44;;;7.14;100.00
1480;BME280;732;51.698;4.886;2023-02-20T13:01:43;102422.16;;;7.31;100.00
1480;BME280;732;51.698;4.886;2023-02-20T13:04:23;102432.88;;;7.37;100.00
1480;BME280;732;51.698;4.886;2023-02-20T13:07:03;102422.47;;;7.18;100.00
1480;BME280;732;51.698;4.886;2023-02-20T13:09:37;102414.47;;;7.13;100.00
1480;BME280;732;51.698;4.886;2023-02-20T13:12:12;102411.28;;;7.00;100.00
1480;BME280;732;51.698;4.886;2023-02-20T13:14:54;102420.34;;;7.08;100.00
1480;BME280;732;51.698;4.886;2023-02-20T13:17:36;102421.63;;;7.17;100.00
1480;BME280;732;51.698;4.886;2023-02-20T13:20:16;102440.94;;;7.41;100.00
1480;BME280;732;51.698;4.886;2023-02-20T13:23:01;102446.94;;;7.61;100.00
1480;BME280;732;51.698;4.886;2023-02-20T13:25:36;102435.94;;;7.47;100.00
1480;BME280;732;51.698;4.886;2023-02-20T13:28:36;102449.44;;;7.36;100.00
1480;BME280;732;51.698;4.886;2023-02-20T13:31:13;102420.13;;;7.24;100.00
1480;BME280;732;51.698;4.886;2023-02-20T13:33:45;102450.25;;;7.14;100.00
1480;BME280;732;51.698;4.886;2023-02-20T13:36:36;102424.28;;;6.98;100.00
1480;BME280;732;51.698;4.886;2023-02-20T13:39:36;102413.50;;;7.11;100.00
1480;BME280;732;51.698;4.886;2023-02-20T13:42:31;102402.75;;;7.26;100.00
1480;BME280;732;51.698;4.886;2023-02-20T13:45:00;102383.34;;;7.41;100.00
1480;BME280;732;51.698;4.886;2023-02-20T13:47:37;102388.56;;;7.41;100.00
1480;BME280;732;51.698;4.886;2023-02-20T13:50:31;102351.31;;;7.26;100.00
1480;BME280;732;51.698;4.886;2023-02-20T13:53:04;102371.91;;;7.39;100.00
1480;BME280;732;51.698;4.886;2023-02-20T13:55:34;102380.66;;;7.40;100.00
1480;BME280;732;51.698;4.886;2023-02-20T13:58:10;102367.44;;;7.15;100.00
1480;BME280;732;51.698;4.886;2023-02-20T14:00:51;102377.28;;;7.00;100.00
1480;BME280;732;51.698;4.886;2023-02-20T14:03:24;102378.16;;;7.00;100.00
1480;BME280;732;51.698;4.886;2023-02-20T14:06:08;102397.06;;;6.93;100.00
1480;BME280;732;51.698;4.886;2023-02-20T14:08:40;102405.03;;;6.96;100.00
1480;BME280;732;51.698;4.886;2023-02-20T14:11:13;102400.38;;;6.89;100.00
1480;BME280;732;51.698;4.886;2023-02-20T14:13:43;102379.47;;;6.89;100.00